Time;durP1;ratioP1;P1;durP2;ratioP2;P2;SDS_P1;SDS_P2;PMS_P1;PMS_P2;Temp;Humidity;BMP_temperature;BMP_pressure;BME280_temperature;BME280_humidity;BME280_pressure;Samples;Min_cycle;Max_cycle;Signal;HPM_P1;HPM_P2
2023/12/25 00:00:24;;;;;;;2.17;0.90;;;11.30;99.90;;;;;;5023445;28;20052;-65
2023/12/25 00:02:50;;;;;;;0.57;0.38;;;11.30;99.90;;;;;;5025924;28;20021;-65
2023/12/25 00:05:16;;;;;;;0.32;0.20;;;11.30;99.90;;;;;;5023452;28;20577;-65
2023/12/25 00:07:41;;;;;;;0.73;0.28;;;11.20;99.90;;;;;;5005227;28;20061;-65
2023/12/25 00:10:08;;;;;;;0.30;0.30;;;11.20;99.90;;;;;;5025929;28;20049;-65
2023/12/25 00:12:34;;;;;;;4.78;0.38;;;11.20;99.90;;;;;;5024461;28;20047;-65
2023/12/25 00:14:59;;;;;;;0.20;0.20;;;11.10;99.90;;;;;;5026195;28;20621;-65
2023/12/25 00:17:25;;;;;;;0.45;0.25;;;11.10;99.90;;;;;;5025797;28;20026;-65
2023/12/25 00:19:51;;;;;;;0.47;0.40;;;11.10;99.90;;;;;;5026159;28;20550;-65
2023/12/25 00:22:17;;;;;;;0.35;0.10;;;11.10;99.90;;;;;;5023496;28;20038;-65
2023/12/25 00:24:44;;;;;;;0.30;0.28;;;11.10;99.90;;;;;;5025119;28;20392;-65
2023/12/25 00:27:09;;;;;;;0.52;0.22;;;11.00;99.90;;;;;;5027105;28;20091;-65
2023/12/25 00:29:35;;;;;;;0.10;0.10;;;11.00;99.90;;;;;;5024212;28;20470;-65
2023/12/25 00:32:01;;;;;;;0.22;0.22;;;10.90;99.90;;;;;;5026372;28;20115;-65
2023/12/25 00:34:26;;;;;;;0.10;0.10;;;10.90;99.90;;;;;;5024253;28;20037;-65
2023/12/25 00:36:52;;;;;;;0.10;0.10;;;10.90;99.90;;;;;;5028297;28;20033;-65
2023/12/25 00:39:18;;;;;;;1.08;0.47;;;10.90;99.90;;;;;;5023328;28;20362;-65
2023/12/25 00:41:43;;;;;;;0.30;0.10;;;10.90;99.90;;;;;;5024542;28;20079;-65
2023/12/25 00:44:09;;;;;;;0.10;0.10;;;10.90;99.90;;;;;;5005211;28;20514;-65
2023/12/25 00:46:35;;;;;;;0.60;0.60;;;10.90;99.90;;;;;;5027762;28;20393;-65
2023/12/25 00:49:01;;;;;;;2.00;0.70;;;10.80;99.90;;;;;;5025554;28;20041;-65
2023/12/25 00:51:29;;;;;;;0.00;0.00;;;10.80;99.90;;;;;;5024885;28;20470;-65
2023/12/25 00:53:55;;;;;;;3.05;0.32;;;10.80;99.90;;;;;;5029124;28;20025;-65
2023/12/25 00:56:21;;;;;;;0.10;0.10;;;10.80;99.90;;;;;;5023389;28;20052;-65
2023/12/25 00:58:46;;;;;;;0.20;0.20;;;10.80;99.90;;;;;;5009373;28;20033;-66
2023/12/25 01:01:12;;;;;;;0.35;0.20;;;10.70;99.90;;;;;;5006408;28;20037;-65
2023/12/25 01:03:38;;;;;;;0.22;0.17;;;10.70;99.90;;;;;;5008545;28;20079;-65
2023/12/25 01:06:04;;;;;;;2.17;0.45;;;10.70;99.90;;;;;;5027759;28;20025;-65
2023/12/25 01:08:33;;;;;;;0.20;0.10;;;10.70;99.90;;;;;;5022477;28;20093;-65
2023/12/25 01:11:02;;;;;;;1.20;0.68;;;10.60;99.90;;;;;;5027303;28;20033;-65
2023/12/25 01:13:28;;;;;;;0.08;0.08;;;10.60;99.90;;;;;;5005125;28;20527;-65
2023/12/25 01:15:54;;;;;;;1.23;0.22;;;10.70;99.90;;;;;;5027671;28;20843;-65
2023/12/25 01:18:20;;;;;;;0.20;0.20;;;10.60;99.90;;;;;;5005883;28;20329;-65
2023/12/25 01:20:46;;;;;;;0.55;0.40;;;10.60;99.90;;;;;;5023685;28;20064;-65
2023/12/25 01:23:12;;;;;;;0.20;0.20;;;10.70;99.90;;;;;;5026270;28;20055;-65
2023/12/25 01:25:38;;;;;;;0.75;0.25;;;10.60;99.90;;;;;;5023327;28;20030;-65
2023/12/25 01:28:04;;;;;;;0.38;0.28;;;10.50;99.90;;;;;;5025235;28;20364;-65
2023/12/25 01:30:30;;;;;;;0.30;0.30;;;10.50;99.90;;;;;;5004083;28;20111;-65
2023/12/25 01:32:55;;;;;;;0.47;0.30;;;10.50;99.90;;;;;;5023904;28;20112;-65
2023/12/25 01:35:21;;;;;;;2.15;0.75;;;10.50;99.90;;;;;;5024153;28;20037;-65
2023/12/25 01:37:47;;;;;;;0.00;0.00;;;10.50;99.90;;;;;;5024915;28;20036;-65
2023/12/25 01:40:14;;;;;;;0.13;0.13;;;10.50;99.90;;;;;;5004677;28;20392;-65
2023/12/25 01:42:43;;;;;;;0.10;0.10;;;10.50;99.90;;;;;;5021953;28;20120;-65
2023/12/25 01:45:10;;;;;;;0.35;0.20;;;10.50;99.90;;;;;;5005081;28;20109;-65
2023/12/25 01:47:36;;;;;;;0.10;0.10;;;10.50;99.90;;;;;;5026862;28;20113;-65
2023/12/25 01:50:05;;;;;;;0.45;0.20;;;10.40;99.90;;;;;;5002439;28;20038;-65
2023/12/25 01:52:31;;;;;;;0.10;0.10;;;10.40;99.90;;;;;;5006661;28;20512;-65
2023/12/25 01:54:57;;;;;;;1.13;0.52;;;10.40;99.90;;;;;;5021897;28;20037;-65
2023/12/25 01:57:26;;;;;;;4.15;0.73;;;10.40;99.90;;;;;;5022826;28;20074;-65
2023/12/25 01:59:52;;;;;;;0.00;0.00;;;10.40;99.90;;;;;;5006555;28;20064;-65
2023/12/25 02:02:20;;;;;;;0.17;0.17;;;10.30;99.90;;;;;;5024474;28;20136;-65
2023/12/25 02:04:46;;;;;;;0.73;0.32;;;10.30;99.90;;;;;;5007180;28;20539;-65
2023/12/25 02:07:14;;;;;;;0.55;0.30;;;10.40;99.90;;;;;;4986788;28;20083;-65
2023/12/25 02:09:39;;;;;;;6.15;0.20;;;10.40;99.90;;;;;;5004973;28;20025;-65
2023/12/25 02:12:05;;;;;;;0.85;0.32;;;10.40;99.90;;;;;;5026666;28;20026;-65
2023/12/25 02:14:32;;;;;;;0.82;0.17;;;10.40;99.90;;;;;;5024245;28;20485;-65
2023/12/25 02:16:58;;;;;;;0.65;0.35;;;10.40;99.90;;;;;;5006769;28;20064;-65
2023/12/25 02:19:37;;;;;;;0.47;0.30;;;10.40;99.90;;;;;;5021408;28;20423;-65
2023/12/25 02:22:07;;;;;;;0.25;0.15;;;10.40;99.90;;;;;;5022493;28;20025;-65
2023/12/25 02:24:36;;;;;;;0.20;0.20;;;10.40;99.90;;;;;;5026484;28;20029;-65
2023/12/25 02:27:01;;;;;;;0.10;0.10;;;10.40;99.90;;;;;;5008002;28;20038;-65
2023/12/25 02:29:27;;;;;;;0.08;0.05;;;10.40;99.90;;;;;;5023243;28;20084;-65
2023/12/25 02:31:53;;;;;;;0.17;0.17;;;10.40;99.90;;;;;;5026867;28;20033;-65
2023/12/25 02:34:19;;;;;;;0.40;0.30;;;10.30;99.90;;;;;;5026035;28;20029;-65
2023/12/25 02:36:44;;;;;;;0.10;0.10;;;10.30;99.90;;;;;;5025379;28;20041;-65
2023/12/25 02:39:10;;;;;;;0.10;0.10;;;10.30;99.90;;;;;;5025254;28;20112;-65
2023/12/25 02:41:36;;;;;;;1.10;0.30;;;10.40;99.90;;;;;;5026479;28;20045;-65
2023/12/25 02:44:03;;;;;;;1.08;0.57;;;10.40;99.90;;;;;;5026320;28;20026;-65
2023/12/25 02:46:28;;;;;;;0.10;0.10;;;10.40;99.90;;;;;;5010894;28;20466;-65
2023/12/25 02:48:54;;;;;;;0.10;0.10;;;10.30;99.90;;;;;;5022561;28;20083;-65
2023/12/25 02:51:20;;;;;;;0.10;0.10;;;10.30;99.90;;;;;;5023348;28;20030;-65
2023/12/25 02:53:45;;;;;;;0.00;0.00;;;10.40;99.90;;;;;;5022305;28;20029;-65
2023/12/25 02:56:11;;;;;;;0.15;0.15;;;10.30;99.90;;;;;;5024285;28;20474;-65
2023/12/25 02:58:37;;;;;;;0.10;0.10;;;10.40;99.90;;;;;;5023002;28;20053;-65
2023/12/25 03:01:03;;;;;;;0.47;0.38;;;10.40;99.90;;;;;;5027004;28;20037;-65
2023/12/25 03:03:28;;;;;;;2.30;0.20;;;10.50;99.90;;;;;;5022970;28;20054;-65
2023/12/25 03:05:54;;;;;;;0.10;0.10;;;10.50;99.90;;;;;;5027195;28;20037;-65
2023/12/25 03:08:20;;;;;;;0.10;0.10;;;10.50;99.90;;;;;;5025335;28;20026;-65
2023/12/25 03:10:46;;;;;;;0.10;0.10;;;10.50;99.90;;;;;;5025360;28;20037;-65
2023/12/25 03:13:11;;;;;;;0.13;0.08;;;10.60;99.90;;;;;;5025187;28;20043;-65
2023/12/25 03:15:37;;;;;;;0.00;0.00;;;10.60;99.90;;;;;;5024528;28;20032;-65
2023/12/25 03:18:03;;;;;;;0.20;0.17;;;10.60;99.90;;;;;;5011490;28;20029;-65
2023/12/25 03:20:29;;;;;;;0.57;0.10;;;10.60;99.90;;;;;;5005719;28;20021;-65
2023/12/25 03:22:55;;;;;;;0.63;0.15;;;10.60;99.90;;;;;;5027578;28;20671;-65
2023/12/25 03:25:20;;;;;;;0.13;0.10;;;10.60;99.90;;;;;;5025832;28;20029;-65
2023/12/25 03:27:46;;;;;;;0.10;0.10;;;10.70;99.90;;;;;;5026360;28;20044;-65
2023/12/25 03:30:12;;;;;;;0.15;0.15;;;10.60;99.90;;;;;;5024233;28;20481;-65
2023/12/25 03:32:39;;;;;;;0.25;0.25;;;10.60;99.90;;;;;;5026247;28;20076;-65
2023/12/25 03:35:05;;;;;;;0.30;0.15;;;10.60;99.90;;;;;;5007909;28;20084;-65
2023/12/25 03:37:31;;;;;;;0.20;0.17;;;10.60;99.90;;;;;;5024892;28;20022;-65
2023/12/25 03:39:57;;;;;;;0.10;0.10;;;10.60;99.90;;;;;;5022131;28;20029;-65
2023/12/25 03:42:23;;;;;;;0.32;0.17;;;10.60;99.90;;;;;;5023619;28;20021;-65
2023/12/25 03:44:49;;;;;;;0.20;0.20;;;10.70;99.90;;;;;;5025041;28;20033;-65
2023/12/25 03:47:15;;;;;;;0.10;0.10;;;10.70;99.90;;;;;;5008389;28;20397;-65
2023/12/25 03:49:41;;;;;;;0.20;0.20;;;10.60;99.90;;;;;;5026380;28;20038;-65
2023/12/25 03:52:07;;;;;;;0.50;0.32;;;10.60;99.90;;;;;;5025025;28;20112;-65
2023/12/25 03:54:32;;;;;;;0.20;0.20;;;10.60;99.90;;;;;;5023350;28;20095;-65
2023/12/25 03:56:58;;;;;;;0.13;0.13;;;10.60;99.90;;;;;;5021824;28;20659;-65
2023/12/25 03:59:24;;;;;;;0.17;0.10;;;10.60;99.90;;;;;;5023809;28;20038;-65
2023/12/25 04:01:49;;;;;;;0.08;0.08;;;10.60;99.90;;;;;;5026360;28;20743;-65
2023/12/25 04:04:15;;;;;;;0.85;0.20;;;10.50;99.90;;;;;;5024287;28;20108;-65
2023/12/25 04:06:41;;;;;;;0.45;0.20;;;10.60;99.90;;;;;;5007687;28;20116;-65
2023/12/25 04:09:06;;;;;;;0.70;0.20;;;10.50;99.90;;;;;;5025110;28;20029;-65
2023/12/25 04:11:32;;;;;;;7.78;0.25;;;10.50;99.90;;;;;;5020683;28;20026;-65
2023/12/25 04:13:58;;;;;;;0.85;0.38;;;10.50;99.90;;;;;;5022607;28;20120;-65
2023/12/25 04:16:26;;;;;;;0.20;0.10;;;10.60;99.90;;;;;;5007901;28;20044;-65
2023/12/25 04:18:54;;;;;;;0.17;0.17;;;10.50;99.90;;;;;;5023026;28;20071;-65
2023/12/25 04:21:33;;;;;;;0.10;0.10;;;10.60;99.90;;;;;;5023639;28;20037;-65
2023/12/25 04:24:00;;;;;;;0.00;0.00;;;10.50;99.90;;;;;;4993815;28;20414;-65
2023/12/25 04:26:26;;;;;;;0.20;0.20;;;10.50;99.90;;;;;;5004378;28;20074;-65
2023/12/25 04:28:53;;;;;;;0.40;0.20;;;10.50;99.90;;;;;;5023314;28;20017;-65
2023/12/25 04:31:19;;;;;;;0.05;0.05;;;10.50;99.90;;;;;;5023130;28;20075;-65
2023/12/25 04:33:45;;;;;;;0.22;0.10;;;10.50;99.90;;;;;;5021546;28;20068;-65
2023/12/25 04:36:11;;;;;;;0.00;0.00;;;10.50;99.90;;;;;;5026188;28;20041;-65
2023/12/25 04:38:37;;;;;;;0.00;0.00;;;10.50;99.90;;;;;;5024806;28;20033;-65
2023/12/25 04:41:03;;;;;;;0.10;0.10;;;10.50;99.90;;;;;;5009377;28;20036;-65
2023/12/25 04:43:29;;;;;;;0.30;0.13;;;10.50;99.90;;;;;;5020945;28;20378;-65
2023/12/25 04:45:55;;;;;;;0.20;0.20;;;10.50;99.90;;;;;;5028152;28;20045;-65
2023/12/25 04:48:21;;;;;;;0.00;0.00;;;10.50;99.90;;;;;;5021994;28;20109;-65
2023/12/25 04:50:47;;;;;;;0.00;0.00;;;10.50;99.90;;;;;;5008323;28;20113;-65
2023/12/25 04:53:14;;;;;;;0.00;0.00;;;10.50;99.90;;;;;;5023576;28;20381;-65
2023/12/25 04:55:40;;;;;;;0.10;0.10;;;10.50;99.90;;;;;;5027892;28;20025;-65
2023/12/25 04:58:06;;;;;;;0.13;0.10;;;10.40;99.90;;;;;;4989690;28;20017;-65
2023/12/25 05:00:33;;;;;;;0.10;0.10;;;10.40;99.90;;;;;;5004863;28;20036;-65
2023/12/25 05:02:59;;;;;;;0.00;0.00;;;10.50;99.90;;;;;;5001825;28;20025;-65
2023/12/25 05:05:25;;;;;;;0.05;0.05;;;10.50;99.90;;;;;;5004892;28;20060;-65
2023/12/25 05:07:52;;;;;;;0.10;0.10;;;10.50;99.90;;;;;;5025038;28;20061;-65
2023/12/25 05:10:18;;;;;;;0.00;0.00;;;10.50;99.90;;;;;;5005403;28;20080;-65
2023/12/25 05:12:44;;;;;;;0.43;0.20;;;10.50;99.90;;;;;;5024705;28;20472;-65
2023/12/25 05:15:10;;;;;;;0.10;0.10;;;10.40;99.90;;;;;;5024123;28;20024;-65
2023/12/25 05:17:36;;;;;;;0.30;0.30;;;10.40;99.90;;;;;;5023026;28;20180;-65
2023/12/25 05:20:02;;;;;;;0.10;0.10;;;10.40;99.90;;;;;;5024825;28;20125;-65
2023/12/25 05:22:28;;;;;;;0.43;0.10;;;10.50;99.90;;;;;;5005852;28;20517;-65
2023/12/25 05:24:53;;;;;;;0.03;0.03;;;10.50;99.90;;;;;;5023861;28;20108;-65
2023/12/25 05:27:19;;;;;;;0.00;0.00;;;10.50;99.90;;;;;;5022374;28;20105;-65
2023/12/25 05:29:45;;;;;;;0.10;0.10;;;10.60;99.90;;;;;;5007315;28;20022;-65
2023/12/25 05:32:11;;;;;;;0.08;0.08;;;10.50;99.90;;;;;;5020744;28;20038;-65
2023/12/25 05:34:36;;;;;;;0.22;0.20;;;10.50;99.90;;;;;;5024264;28;20033;-65
2023/12/25 05:37:02;;;;;;;2.08;0.30;;;10.50;99.90;;;;;;5003806;28;20022;-65
2023/12/25 05:39:28;;;;;;;0.10;0.10;;;10.60;99.90;;;;;;5024850;28;20030;-65
2023/12/25 05:41:53;;;;;;;0.00;0.00;;;10.60;99.90;;;;;;5006832;28;20094;-65
2023/12/25 05:44:19;;;;;;;0.00;0.00;;;10.60;99.90;;;;;;5026827;28;20131;-65
2023/12/25 05:46:45;;;;;;;0.00;0.00;;;10.70;99.90;;;;;;5012594;28;20033;-65
2023/12/25 05:49:11;;;;;;;0.00;0.00;;;10.60;99.90;;;;;;5029606;28;20034;-65
2023/12/25 05:51:38;;;;;;;0.00;0.00;;;10.60;99.90;;;;;;4998472;28;20032;-65
2023/12/25 05:54:03;;;;;;;0.32;0.30;;;10.60;99.90;;;;;;5031194;28;20075;-65
2023/12/25 05:56:29;;;;;;;0.00;0.00;;;10.60;99.90;;;;;;5012391;28;20025;-65
2023/12/25 05:58:55;;;;;;;0.00;0.00;;;10.50;99.90;;;;;;5033299;28;20045;-65
2023/12/25 06:01:22;;;;;;;0.10;0.10;;;10.50;99.90;;;;;;5029877;28;20034;-65
2023/12/25 06:03:49;;;;;;;0.52;0.50;;;10.50;99.90;;;;;;5013852;28;20107;-64
2023/12/25 06:06:15;;;;;;;0.52;0.28;;;10.60;99.90;;;;;;5032055;28;20454;-64
2023/12/25 06:08:40;;;;;;;0.20;0.17;;;10.60;99.90;;;;;;5027035;28;20060;-64
2023/12/25 06:11:06;;;;;;;0.32;0.20;;;10.50;99.90;;;;;;5028611;28;20469;-64
2023/12/25 06:13:32;;;;;;;0.13;0.10;;;10.50;99.90;;;;;;5030314;28;20040;-65
2023/12/25 06:15:57;;;;;;;0.38;0.10;;;10.50;99.90;;;;;;5031080;28;20026;-66
2023/12/25 06:18:23;;;;;;;0.63;0.13;;;10.40;99.90;;;;;;5013140;28;20612;-65
2023/12/25 06:20:49;;;;;;;0.20;0.10;;;10.30;99.90;;;;;;5010451;28;20033;-65
2023/12/25 06:23:14;;;;;;;0.05;0.05;;;10.30;99.90;;;;;;5030217;28;20503;-65
2023/12/25 06:25:40;;;;;;;0.00;0.00;;;10.20;99.90;;;;;;5026195;28;20033;-65
2023/12/25 06:28:06;;;;;;;0.10;0.10;;;10.30;99.90;;;;;;5031531;28;20116;-65
2023/12/25 06:30:32;;;;;;;0.52;0.38;;;10.30;99.90;;;;;;5026712;28;20592;-65
2023/12/25 06:32:57;;;;;;;0.00;0.00;;;10.30;99.90;;;;;;5033607;28;20062;-65
2023/12/25 06:35:23;;;;;;;0.10;0.10;;;10.40;99.90;;;;;;5028025;28;20033;-65
2023/12/25 06:37:49;;;;;;;0.82;0.25;;;10.40;99.90;;;;;;5029859;28;20038;-65
2023/12/25 06:40:15;;;;;;;0.10;0.10;;;10.40;99.90;;;;;;5028570;28;20037;-65
2023/12/25 06:42:41;;;;;;;0.10;0.10;;;10.50;99.90;;;;;;5027859;28;20041;-65
2023/12/25 06:45:07;;;;;;;0.32;0.30;;;10.50;99.90;;;;;;5026145;28;20038;-65
2023/12/25 06:47:34;;;;;;;0.10;0.10;;;10.50;99.90;;;;;;5030550;28;20128;-65
2023/12/25 06:50:00;;;;;;;0.10;0.10;;;10.60;99.90;;;;;;5014767;28;20018;-65
2023/12/25 06:52:26;;;;;;;0.10;0.10;;;10.50;99.90;;;;;;5010240;28;20040;-65
2023/12/25 06:54:51;;;;;;;0.10;0.10;;;10.50;99.90;;;;;;5029726;28;20045;-65
2023/12/25 06:57:20;;;;;;;0.10;0.10;;;10.50;99.90;;;;;;5027492;28;20030;-65
2023/12/25 06:59:46;;;;;;;0.40;0.32;;;10.50;99.90;;;;;;5027798;28;20116;-65
2023/12/25 07:02:11;;;;;;;0.28;0.25;;;10.50;99.90;;;;;;5028723;28;20112;-65
2023/12/25 07:04:38;;;;;;;0.35;0.10;;;10.60;99.90;;;;;;5028150;28;20026;-65
2023/12/25 07:07:04;;;;;;;3.95;0.20;;;10.60;99.90;;;;;;5010008;28;20025;-65
2023/12/25 07:09:30;;;;;;;0.10;0.10;;;10.60;99.90;;;;;;5026637;28;20462;-65
2023/12/25 07:11:56;;;;;;;0.10;0.10;;;10.60;99.90;;;;;;5023070;28;20021;-65
2023/12/25 07:14:22;;;;;;;0.10;0.10;;;10.60;99.90;;;;;;5025114;28;20033;-65
2023/12/25 07:16:48;;;;;;;1.35;0.45;;;10.60;99.90;;;;;;5024197;28;20423;-65
2023/12/25 07:19:14;;;;;;;0.10;0.10;;;10.60;99.90;;;;;;5026274;28;20037;-65
2023/12/25 07:21:41;;;;;;;0.32;0.10;;;10.50;99.90;;;;;;5025065;28;20034;-65
2023/12/25 07:24:07;;;;;;;0.63;0.32;;;10.40;99.90;;;;;;5025881;28;20038;-66
2023/12/25 07:26:33;;;;;;;0.50;0.38;;;10.40;99.90;;;;;;5026803;28;20168;-65
2023/12/25 07:28:58;;;;;;;0.45;0.30;;;10.40;99.90;;;;;;5014143;28;20481;-66
2023/12/25 07:31:24;;;;;;;0.43;0.17;;;10.40;99.90;;;;;;5027121;28;20084;-65
2023/12/25 07:33:51;;;;;;;0.15;0.13;;;10.40;99.90;;;;;;5011657;28;20065;-66
2023/12/25 07:36:17;;;;;;;0.13;0.10;;;10.40;99.90;;;;;;5034114;28;20637;-66
2023/12/25 07:38:43;;;;;;;0.20;0.20;;;10.40;99.90;;;;;;5011288;28;20132;-65
2023/12/25 07:41:10;;;;;;;0.13;0.13;;;10.40;99.90;;;;;;5028440;28;20589;-64
2023/12/25 07:43:37;;;;;;;0.10;0.10;;;10.40;99.90;;;;;;5030556;28;20033;-65
2023/12/25 07:46:07;;;;;;;0.15;0.15;;;10.40;99.90;;;;;;5015652;28;20084;-65
2023/12/25 07:48:34;;;;;;;2.35;0.65;;;10.40;99.90;;;;;;5015259;28;22099;-65
2023/12/25 07:51:00;;;;;;;0.55;0.40;;;10.30;99.90;;;;;;5010741;28;20044;-65
2023/12/25 07:53:26;;;;;;;0.57;0.38;;;10.40;99.90;;;;;;5023996;28;20443;-65
2023/12/25 07:55:52;;;;;;;7.13;0.55;;;10.40;99.90;;;;;;5026714;28;20110;-66
2023/12/25 07:58:18;;;;;;;3.13;0.32;;;10.30;99.90;;;;;;5013813;28;20490;-65
2023/12/25 08:00:44;;;;;;;0.25;0.25;;;10.30;99.90;;;;;;5025323;28;20089;-65
2023/12/25 08:03:13;;;;;;;0.10;0.10;;;10.30;99.90;;;;;;5031168;28;20481;-65
2023/12/25 08:05:39;;;;;;;0.45;0.30;;;10.30;99.90;;;;;;5032680;28;20100;-65
2023/12/25 08:08:08;;;;;;;1.25;0.30;;;10.20;99.90;;;;;;5031732;28;20029;-65
2023/12/25 08:10:34;;;;;;;0.70;0.52;;;10.20;99.90;;;;;;5012415;28;20032;-65
2023/12/25 08:13:02;;;;;;;1.27;0.80;;;10.20;99.90;;;;;;5014704;28;20020;-65
2023/12/25 08:15:29;;;;;;;0.10;0.10;;;10.30;99.90;;;;;;5014925;28;20025;-65
2023/12/25 08:17:55;;;;;;;0.65;0.20;;;10.30;99.90;;;;;;5011523;28;20583;-65
2023/12/25 08:20:20;;;;;;;0.57;0.30;;;10.30;99.90;;;;;;5032442;28;20033;-65
2023/12/25 08:22:49;;;;;;;2.38;0.30;;;10.30;99.90;;;;;;5031240;28;20037;-65
2023/12/25 08:25:15;;;;;;;0.38;0.20;;;10.30;99.90;;;;;;5003377;28;20045;-65
2023/12/25 08:27:40;;;;;;;0.57;0.40;;;10.30;99.90;;;;;;5026202;28;20059;-65
2023/12/25 08:30:07;;;;;;;0.00;0.00;;;10.30;99.90;;;;;;5024169;28;20493;-64
2023/12/25 08:32:33;;;;;;;0.88;0.40;;;10.20;99.90;;;;;;5007868;28;20032;-65
2023/12/25 08:34:59;;;;;;;5.47;0.50;;;10.20;99.90;;;;;;5029356;28;20029;-65
2023/12/25 08:37:24;;;;;;;0.60;0.30;;;10.20;99.90;;;;;;5031709;28;20033;-65
2023/12/25 08:39:50;;;;;;;1.08;0.20;;;10.20;99.90;;;;;;5007078;28;20756;-65
2023/12/25 08:42:16;;;;;;;0.35;0.25;;;10.20;99.90;;;;;;5030936;28;20084;-64
2023/12/25 08:44:42;;;;;;;6.20;0.65;;;10.20;99.90;;;;;;5030268;28;20497;-65
2023/12/25 08:47:08;;;;;;;0.90;0.60;;;10.20;99.90;;;;;;5022012;28;20467;-65
2023/12/25 08:49:36;;;;;;;0.13;0.13;;;10.20;99.90;;;;;;5031306;28;20034;-65
2023/12/25 08:52:03;;;;;;;0.35;0.32;;;10.20;99.90;;;;;;5030680;28;20033;-65
2023/12/25 08:54:29;;;;;;;0.17;0.17;;;10.30;99.90;;;;;;5031631;28;20021;-65
2023/12/25 08:56:55;;;;;;;0.43;0.43;;;10.30;99.90;;;;;;5013146;28;20381;-65
2023/12/25 08:59:22;;;;;;;0.10;0.10;;;10.40;99.90;;;;;;5031270;28;20132;-64
2023/12/25 09:01:53;;;;;;;0.32;0.20;;;10.40;99.90;;;;;;5030335;28;20441;-66
2023/12/25 09:04:19;;;;;;;0.43;0.20;;;10.50;99.90;;;;;;5029999;28;20622;-64
2023/12/25 09:06:45;;;;;;;0.08;0.08;;;10.50;99.90;;;;;;5030713;28;20036;-65
2023/12/25 09:09:11;;;;;;;0.28;0.10;;;10.50;99.90;;;;;;5013926;28;20263;-65
2023/12/25 09:11:37;;;;;;;4.68;0.15;;;10.50;99.90;;;;;;5012822;28;20033;-64
2023/12/25 09:14:03;;;;;;;0.55;0.25;;;10.50;99.90;;;;;;5013922;28;20429;-65
2023/12/25 09:16:29;;;;;;;0.77;0.20;;;10.50;99.90;;;;;;5031177;28;20059;-65
2023/12/25 09:18:55;;;;;;;0.08;0.08;;;10.50;99.90;;;;;;5012831;28;20445;-65
2023/12/25 09:21:21;;;;;;;0.20;0.20;;;10.60;99.90;;;;;;5030561;28;20033;-65
2023/12/25 09:23:48;;;;;;;0.10;0.10;;;10.60;99.90;;;;;;5013097;28;20045;-65
2023/12/25 09:26:20;;;;;;;0.00;0.00;;;10.60;99.90;;;;;;5024742;28;20033;-65
2023/12/25 09:28:47;;;;;;;0.55;0.30;;;10.60;99.90;;;;;;5030457;28;20080;-65
2023/12/25 09:31:13;;;;;;;0.10;0.10;;;10.60;99.90;;;;;;5029124;28;20029;-65
2023/12/25 09:33:40;;;;;;;0.10;0.10;;;10.60;99.90;;;;;;5030870;28;20031;-65
2023/12/25 09:36:07;;;;;;;0.10;0.10;;;10.70;99.90;;;;;;4994265;28;20037;-65
2023/12/25 09:38:32;;;;;;;0.80;0.40;;;10.80;99.90;;;;;;5012727;28;20025;-65
2023/12/25 09:40:58;;;;;;;0.00;0.00;;;10.70;99.90;;;;;;5012693;28;20095;-65
2023/12/25 09:43:27;;;;;;;0.10;0.10;;;10.80;99.90;;;;;;5030622;28;20116;-65
2023/12/25 09:45:53;;;;;;;0.43;0.43;;;10.80;99.90;;;;;;5011291;28;20061;-68
2023/12/25 09:48:19;;;;;;;3.33;0.32;;;10.80;99.90;;;;;;5013233;28;20033;-65
2023/12/25 09:50:45;;;;;;;1.58;0.20;;;10.80;99.90;;;;;;5012314;28;21366;-64
2023/12/25 09:53:11;;;;;;;0.03;0.03;;;10.80;99.90;;;;;;5013168;28;20029;-64
2023/12/25 09:55:37;;;;;;;0.85;0.20;;;10.80;99.90;;;;;;5029819;28;20536;-64
2023/12/25 09:58:06;;;;;;;2.05;0.22;;;10.80;99.90;;;;;;5029246;28;20037;-64
2023/12/25 10:00:32;;;;;;;0.10;0.10;;;10.80;99.90;;;;;;5012669;28;20057;-63
2023/12/25 10:02:59;;;;;;;0.45;0.20;;;10.80;99.90;;;;;;5002475;28;20551;-64
2023/12/25 10:05:26;;;;;;;1.55;0.20;;;10.80;99.90;;;;;;5012590;28;20068;-64
2023/12/25 10:07:52;;;;;;;0.22;0.22;;;10.80;99.90;;;;;;5018971;28;20106;-64
2023/12/25 10:10:17;;;;;;;0.10;0.10;;;10.80;99.90;;;;;;5024730;28;20017;-64
2023/12/25 10:12:46;;;;;;;0.20;0.20;;;10.70;99.90;;;;;;5029469;28;20100;-64
2023/12/25 10:15:13;;;;;;;0.80;0.30;;;10.70;99.90;;;;;;5030713;28;20025;-67
2023/12/25 10:17:39;;;;;;;0.10;0.10;;;10.80;99.90;;;;;;5030559;28;20060;-63
2023/12/25 10:20:08;;;;;;;2.33;0.30;;;10.70;99.90;;;;;;5022733;28;20042;-64
2023/12/25 10:22:40;;;;;;;0.00;0.00;;;10.70;99.90;;;;;;5010158;28;20026;-64
2023/12/25 10:25:11;;;;;;;0.38;0.10;;;10.80;99.90;;;;;;5013037;28;20590;-64
2023/12/25 10:27:42;;;;;;;0.82;0.30;;;10.70;99.90;;;;;;5028238;28;20087;-64
2023/12/25 10:30:17;;;;;;;0.30;0.30;;;10.60;99.90;;;;;;5031864;28;20025;-64
2023/12/25 10:32:43;;;;;;;0.52;0.40;;;10.60;99.90;;;;;;5032584;28;20033;-45
2023/12/25 10:35:15;;;;;;;0.80;0.40;;;10.40;99.90;;;;;;5015544;28;20084;-64
2023/12/25 10:37:42;;;;;;;0.50;0.47;;;10.30;99.90;;;;;;5006213;28;20030;-63
2023/12/25 10:40:31;;;;;;;0.57;0.40;;;9.90;99.90;;;;;;5030135;28;20480;-64
2023/12/25 10:42:58;;;;;;;0.60;0.40;;;9.70;99.90;;;;;;5033449;28;20039;-65
2023/12/25 10:45:30;;;;;;;0.85;0.30;;;9.80;99.90;;;;;;5032735;28;20029;-64
2023/12/25 10:48:05;;;;;;;0.15;0.15;;;9.80;99.90;;;;;;5015452;28;20029;-64
2023/12/25 10:50:38;;;;;;;0.73;0.50;;;9.60;99.90;;;;;;5032900;28;20071;-64
2023/12/25 10:53:05;;;;;;;5.82;0.35;;;9.70;99.90;;;;;;5016487;28;20049;-64
2023/12/25 10:55:41;;;;;;;0.73;0.40;;;9.40;99.90;;;;;;5014929;28;20028;-64
2023/12/25 10:58:10;;;;;;;1.75;0.45;;;9.30;99.90;;;;;;5008766;28;20051;-64
2023/12/25 11:00:43;;;;;;;0.43;0.40;;;9.30;99.90;;;;;;5032903;28;20038;-64
2023/12/25 11:03:14;;;;;;;0.57;0.55;;;9.30;99.90;;;;;;5033119;28;20029;-64
2023/12/25 11:05:40;;;;;;;;;;;9.30;99.90;;;;;;5031446;28;20421;-64
2023/12/25 11:08:11;;;;;;;0.95;0.35;;;9.30;99.90;;;;;;5014412;28;19975;-63
2023/12/25 11:10:37;;;;;;;0.30;0.30;;;9.30;99.90;;;;;;5014906;28;20021;-64
2023/12/25 11:13:04;;;;;;;0.55;0.55;;;9.30;99.90;;;;;;5015612;28;20040;-63
2023/12/25 11:15:30;;;;;;;1.40;0.95;;;9.20;99.90;;;;;;5032583;28;20025;-64
2023/12/25 11:17:55;;;;;;;0.20;0.20;;;9.20;99.90;;;;;;5029563;28;20539;-64
2023/12/25 11:20:21;;;;;;;0.60;0.40;;;9.20;99.90;;;;;;5015710;28;20030;-63
2023/12/25 11:22:47;;;;;;;1.00;0.32;;;9.10;99.90;;;;;;5031208;28;20091;-64
2023/12/25 11:25:20;;;;;;;0.13;0.13;;;9.20;99.90;;;;;;5033372;28;20493;-64
2023/12/25 11:27:55;;;;;;;0.63;0.50;;;9.20;99.90;;;;;;5013961;28;20544;-64
2023/12/25 11:30:24;;;;;;;0.63;0.52;;;9.20;99.90;;;;;;5032677;28;20036;-64
2023/12/25 11:32:51;;;;;;;0.85;0.47;;;9.20;99.90;;;;;;5030648;28;20026;-64
2023/12/25 11:35:27;;;;;;;0.70;0.40;;;9.20;99.90;;;;;;4999313;28;20028;-64
2023/12/25 11:38:22;;;;;;;0.63;0.50;;;9.10;99.90;;;;;;5031387;28;20040;-64
2023/12/25 11:40:51;;;;;;;1.10;0.50;;;9.10;99.90;;;;;;5031917;28;20670;-64
2023/12/25 11:43:18;;;;;;;1.00;0.25;;;9.10;99.90;;;;;;5014460;28;20057;-64
2023/12/25 11:45:54;;;;;;;3.10;1.05;;;9.10;99.90;;;;;;5014597;28;20029;-67
2023/12/25 11:48:20;;;;;;;0.65;0.50;;;9.10;99.90;;;;;;4996036;28;20026;-65
2023/12/25 11:50:46;;;;;;;0.52;0.43;;;9.10;99.90;;;;;;5030137;28;20036;-64
2023/12/25 11:53:39;;;;;;;0.43;0.32;;;9.10;99.90;;;;;;5014359;28;20068;-64
2023/12/25 11:56:08;;;;;;;0.20;0.20;;;9.00;99.90;;;;;;5029007;28;20036;-65
2023/12/25 11:58:35;;;;;;;0.90;0.63;;;9.10;99.90;;;;;;5014416;28;20032;-64
2023/12/25 12:01:01;;;;;;;0.25;0.22;;;9.10;99.90;;;;;;5028580;28;20057;-64
2023/12/25 12:03:28;;;;;;;0.50;0.50;;;9.00;99.90;;;;;;5011065;28;20072;-64
2023/12/25 12:05:54;;;;;;;0.57;0.57;;;9.00;99.90;;;;;;5013920;28;20033;-64
2023/12/25 12:08:20;;;;;;;3.85;0.50;;;9.00;99.90;;;;;;5032591;28;20018;-64
2023/12/25 12:10:46;;;;;;;1.75;0.32;;;9.00;99.90;;;;;;5031588;28;20503;-64
2023/12/25 12:13:16;;;;;;;0.98;0.52;;;9.10;99.90;;;;;;5030927;28;20071;-64
2023/12/25 12:15:42;;;;;;;0.43;0.30;;;9.10;99.90;;;;;;5014601;28;20076;-64
2023/12/25 12:18:07;;;;;;;0.70;0.30;;;9.20;99.90;;;;;;5032483;28;20083;-64
2023/12/25 12:20:33;;;;;;;0.55;0.20;;;9.20;99.90;;;;;;5031556;28;20455;-64
2023/12/25 12:22:59;;;;;;;0.22;0.20;;;9.30;99.90;;;;;;5006581;28;20029;-64
2023/12/25 12:25:29;;;;;;;0.32;0.28;;;9.20;99.90;;;;;;5014179;28;20021;-64
2023/12/25 12:28:00;;;;;;;0.60;0.22;;;9.30;99.90;;;;;;5013434;28;20444;-65
2023/12/25 12:30:28;;;;;;;1.45;0.98;;;9.30;99.90;;;;;;5030783;28;20018;-64
2023/12/25 12:32:53;;;;;;;1.00;0.35;;;9.40;99.90;;;;;;5013862;28;20032;-65
2023/12/25 12:35:19;;;;;;;1.10;0.60;;;9.40;99.90;;;;;;5008832;28;20380;-65
2023/12/25 12:37:45;;;;;;;0.65;0.40;;;9.40;99.90;;;;;;5031154;28;20385;-65
2023/12/25 12:40:11;;;;;;;0.65;0.30;;;9.30;99.90;;;;;;5032716;28;20044;-65
2023/12/25 12:42:40;;;;;;;0.17;0.17;;;9.40;99.90;;;;;;5036067;28;20037;-65
2023/12/25 12:45:06;;;;;;;0.28;0.28;;;9.40;99.90;;;;;;5036838;28;20155;-66